createdAt,value
2023-04-01T00:01:41.468Z,0.52
2023-04-01T00:05:41.945Z,0.51
2023-04-01T00:09:41.397Z,0.51
2023-04-01T00:13:41.356Z,0.51
2023-04-01T00:17:41.462Z,0.51
2023-04-01T00:21:41.425Z,0.51
2023-04-01T00:25:41.419Z,0.51
2023-04-01T00:29:41.239Z,0.52
2023-04-01T00:33:41.177Z,0.51
2023-04-01T00:37:41.426Z,0.52
2023-04-01T00:41:41.113Z,0.51
2023-04-01T00:45:41.464Z,0.51
2023-04-01T00:49:41.028Z,0.51
2023-04-01T00:53:41.008Z,0.50
2023-04-01T00:57:41.437Z,0.51
2023-04-01T01:01:41.016Z,0.51
2023-04-01T01:05:48.979Z,0.52
2023-04-01T01:09:41.927Z,0.52
2023-04-01T01:13:40.840Z,0.52
2023-04-01T01:17:41.499Z,0.51
2023-04-01T01:21:41.422Z,0.51
2023-04-01T01:25:41.454Z,0.52
2023-04-01T01:29:40.921Z,0.51
2023-04-01T01:33:40.883Z,0.51
2023-04-01T01:37:40.956Z,0.52
2023-04-01T01:41:40.798Z,0.50
2023-04-01T01:45:40.969Z,0.51
2023-04-01T01:49:40.733Z,0.50
2023-04-01T01:53:40.697Z,0.51
2023-04-01T01:57:40.753Z,0.52
2023-04-01T02:01:41.010Z,0.52
2023-04-01T02:05:41.487Z,0.51
2023-04-01T02:09:41.387Z,0.51
2023-04-01T02:13:41.555Z,0.52
2023-04-01T02:17:42.005Z,0.51
2023-04-01T02:21:41.954Z,0.51
2023-04-01T02:25:42.462Z,0.51
2023-04-01T02:29:42.089Z,0.50
2023-04-01T02:33:42.462Z,0.50
2023-04-01T02:37:42.292Z,0.52
2023-04-01T02:41:42.458Z,0.52
2023-04-01T02:45:42.494Z,0.50
2023-04-01T02:49:42.427Z,0.51
2023-04-01T02:53:42.523Z,0.52
2023-04-01T02:57:42.513Z,0.51
2023-04-01T03:01:42.474Z,0.51
2023-04-01T03:05:42.505Z,0.51
2023-04-01T03:09:42.492Z,0.52
2023-04-01T03:13:42.497Z,0.50
2023-04-01T03:17:42.522Z,0.51
2023-04-01T03:21:42.477Z,0.50
2023-04-01T03:25:42.400Z,0.51
2023-04-01T03:29:42.513Z,0.52
2023-04-01T03:33:42.499Z,0.51
2023-04-01T03:37:42.514Z,0.51
2023-04-01T03:41:42.526Z,0.51
2023-04-01T03:45:42.386Z,0.53
2023-04-01T03:49:42.491Z,0.52
2023-04-01T03:53:42.491Z,0.53
2023-04-01T03:57:42.408Z,0.52
2023-04-01T04:01:42.394Z,0.51
2023-04-01T04:05:42.372Z,0.51
2023-04-01T04:09:42.498Z,0.51
2023-04-01T04:13:42.337Z,0.51
2023-04-01T04:17:42.610Z,0.51
2023-04-01T04:21:42.315Z,0.52
2023-04-01T04:25:42.286Z,0.51
2023-04-01T04:29:42.511Z,0.52
2023-04-01T04:33:42.254Z,0.51
2023-04-01T04:37:42.536Z,0.51
2023-04-01T04:41:42.526Z,0.52
2023-04-01T04:45:42.183Z,0.52
2023-04-01T04:49:42.559Z,0.52
2023-04-01T04:53:42.177Z,0.51
2023-04-01T04:57:42.132Z,0.51
2023-04-01T05:01:42.151Z,0.52
2023-04-01T05:05:42.521Z,0.51
2023-04-01T05:09:42.084Z,0.52
2023-04-01T05:13:42.571Z,0.52
2023-04-01T05:17:42.143Z,0.52
2023-04-01T05:21:42.035Z,0.52
2023-04-01T05:25:42.040Z,0.51
2023-04-01T05:29:42.092Z,0.52
2023-04-01T05:33:42.060Z,0.51
2023-04-01T05:37:42.015Z,0.53
2023-04-01T05:41:41.947Z,0.51
2023-04-01T05:45:42.045Z,0.53
2023-04-01T05:49:42.066Z,0.52
2023-04-01T05:53:41.902Z,0.52
2023-04-01T05:57:42.178Z,0.52
2023-04-01T06:01:41.829Z,0.52
2023-04-01T06:05:42.067Z,0.51
2023-04-01T06:09:41.843Z,0.51
2023-04-01T06:13:42.078Z,0.52
2023-04-01T06:17:41.953Z,0.52
2023-04-01T06:21:41.997Z,0.51
2023-04-01T06:25:42.568Z,0.52
2023-04-01T06:29:42.606Z,0.52
2023-04-01T06:33:42.451Z,0.51
2023-04-01T06:37:42.563Z,0.51
2023-04-01T06:41:43.039Z,0.51
2023-04-01T06:45:43.141Z,0.50
2023-04-01T06:49:43.076Z,0.52
2023-04-01T06:53:43.026Z,0.51
2023-04-01T06:57:43.250Z,0.52
2023-04-01T07:01:43.269Z,0.51
2023-04-01T07:05:43.627Z,0.52
2023-04-01T07:09:43.131Z,0.51
2023-04-01T07:13:43.605Z,0.51
2023-04-01T07:17:43.113Z,0.52
2023-04-01T07:21:43.099Z,0.52
2023-04-01T07:25:43.087Z,0.51
2023-04-01T07:29:43.120Z,0.52
2023-04-01T07:33:42.938Z,0.52
2023-04-01T07:37:43.112Z,0.50
2023-04-01T07:41:43.612Z,0.51
2023-04-01T07:45:43.598Z,0.51
2023-04-01T07:49:44.073Z,0.51
2023-04-01T07:53:43.941Z,0.52
2023-04-01T07:57:44.177Z,0.52
2023-04-01T08:01:44.365Z,0.51
2023-04-01T08:05:45.657Z,0.52
2023-04-01T08:09:44.586Z,0.56
2023-04-01T08:13:44.764Z,0.63
2023-04-01T08:17:44.861Z,0.74
2023-04-01T08:21:45.147Z,0.69
2023-04-01T08:25:45.106Z,0.58
2023-04-01T08:29:44.991Z,0.52
2023-04-01T08:33:45.102Z,0.50
2023-04-01T08:37:46.130Z,0.50
2023-04-01T08:41:45.589Z,0.51
2023-04-01T08:45:45.653Z,0.52
2023-04-01T08:49:45.513Z,0.51
2023-04-01T08:53:45.685Z,0.51
2023-04-01T08:57:46.130Z,0.51
2023-04-01T09:01:46.041Z,0.51
2023-04-01T09:05:46.669Z,0.51
2023-04-01T09:09:46.476Z,0.51
2023-04-01T09:13:46.674Z,0.50
2023-04-01T09:17:47.169Z,0.52
2023-04-01T09:21:47.149Z,0.52
2023-04-01T09:25:47.657Z,0.52
2023-04-01T09:29:47.447Z,0.53
2023-04-01T09:33:47.574Z,0.53
2023-04-01T09:37:48.144Z,0.53
2023-04-01T09:41:48.176Z,0.53
2023-04-01T09:45:48.145Z,0.53
2023-04-01T09:49:48.106Z,0.54
2023-04-01T09:53:48.231Z,0.54
2023-04-01T09:57:48.656Z,0.54
2023-04-01T10:01:48.563Z,0.53
2023-04-01T10:05:48.704Z,0.53
2023-04-01T10:09:48.783Z,0.52
2023-04-01T10:13:49.158Z,0.53
2023-04-01T10:17:49.681Z,0.51
2023-04-01T10:21:49.667Z,0.52
2023-04-01T10:25:49.167Z,0.52
2023-04-01T10:29:49.075Z,0.52
2023-04-01T10:33:49.168Z,0.52
2023-04-01T10:37:49.161Z,0.51
2023-04-01T10:41:49.180Z,0.52
2023-04-01T10:45:49.014Z,0.52
2023-04-01T10:49:48.969Z,0.52
2023-04-01T10:53:49.009Z,0.52
2023-04-01T10:57:49.178Z,0.52
2023-04-01T11:01:54.859Z,0.51
2023-04-01T11:05:49.859Z,0.52
2023-04-01T11:09:48.892Z,0.52
2023-04-01T11:13:48.851Z,0.51
2023-04-01T11:17:49.225Z,0.51
2023-04-01T11:21:49.178Z,0.52
2023-04-01T11:25:49.163Z,0.52
2023-04-01T11:29:59.229Z,0.51
2023-04-01T11:33:49.683Z,0.52
2023-04-01T11:37:48.642Z,0.51
2023-04-01T11:41:49.201Z,0.52
2023-04-01T11:45:48.935Z,0.51
2023-04-01T11:49:49.140Z,0.51
2023-04-01T11:53:49.719Z,0.51
2023-04-01T11:57:49.263Z,0.51
2023-04-01T12:01:49.271Z,0.52
2023-04-01T12:05:49.280Z,0.52
2023-04-01T12:09:49.685Z,0.52
2023-04-01T12:13:49.302Z,0.52
2023-04-01T12:17:49.807Z,0.51
2023-04-01T12:21:49.326Z,0.51
2023-04-01T12:25:49.364Z,0.50
2023-04-01T12:29:49.679Z,0.51
2023-04-01T12:33:49.709Z,0.51
2023-04-01T12:37:49.388Z,0.51
2023-04-01T12:41:49.704Z,0.51
2023-04-01T12:45:49.294Z,0.52
2023-04-01T12:49:49.715Z,0.51
2023-04-01T12:53:49.748Z,0.52
2023-04-01T12:57:49.304Z,0.51
2023-04-01T13:01:56.745Z,0.52
2023-04-01T13:05:49.283Z,0.52
2023-04-01T13:09:52.147Z,0.52
2023-04-01T13:13:49.227Z,0.51
2023-04-01T13:17:49.268Z,0.51
2023-04-01T13:21:49.225Z,0.51
2023-04-01T13:25:51.096Z,0.50
2023-04-01T13:29:50.221Z,0.50
2023-04-01T13:33:49.245Z,0.51
2023-04-01T13:37:49.254Z,0.51
2023-04-01T13:41:48.984Z,0.50
2023-04-01T13:45:49.268Z,0.51
2023-04-01T13:49:49.264Z,0.51
2023-04-01T13:53:49.255Z,0.51
2023-04-01T13:57:49.288Z,0.50
2023-04-01T14:01:49.203Z,0.51
2023-04-01T14:05:49.292Z,0.51
2023-04-01T14:09:49.767Z,0.51
2023-04-01T14:13:49.761Z,0.51
2023-04-01T14:17:49.766Z,0.52
2023-04-01T14:21:49.674Z,0.51
2023-04-01T14:25:49.809Z,0.51
2023-04-01T14:29:50.259Z,0.51
2023-04-01T14:33:50.282Z,0.52
2023-04-01T14:37:50.263Z,0.51
2023-04-01T14:41:50.216Z,0.51
2023-04-01T14:45:50.393Z,0.51
2023-04-01T14:49:50.758Z,0.51
2023-04-01T14:53:50.622Z,0.52
2023-04-01T14:57:50.797Z,0.52
2023-04-01T15:01:50.951Z,0.51
2023-04-01T15:05:51.030Z,0.52
2023-04-01T15:09:51.283Z,0.50
2023-04-01T15:13:51.784Z,0.51
2023-04-01T15:17:51.497Z,0.51
2023-04-01T15:21:51.783Z,0.52
2023-04-01T15:25:51.838Z,0.50
2023-04-01T15:29:52.334Z,0.51
2023-04-01T15:33:52.148Z,0.51
2023-04-01T15:37:52.331Z,0.52
2023-04-01T15:41:52.829Z,0.51
2023-04-01T15:45:52.795Z,0.51
2023-04-01T15:49:52.885Z,0.50
2023-04-01T15:53:53.317Z,0.52
2023-04-01T15:57:53.268Z,0.52
2023-04-01T16:01:53.452Z,0.51
2023-04-01T16:05:53.661Z,0.52
2023-04-01T16:09:54.329Z,0.52
2023-04-01T16:13:54.058Z,0.51
2023-04-01T16:17:54.262Z,0.52
2023-04-01T16:21:54.439Z,0.51
2023-04-01T16:25:54.821Z,0.52
2023-04-01T16:29:54.872Z,0.52
2023-04-01T16:33:55.283Z,0.52
2023-04-01T16:37:55.317Z,0.50
2023-04-01T16:41:55.542Z,0.51
2023-04-01T16:45:55.821Z,0.51
2023-04-01T16:49:56.308Z,0.51
2023-04-01T16:53:56.211Z,0.51
2023-04-01T16:57:56.155Z,0.51
2023-04-01T17:01:56.125Z,0.51
2023-04-01T17:05:56.321Z,0.51
2023-04-01T17:09:56.400Z,0.51
2023-04-01T17:13:56.036Z,0.51
2023-04-01T17:17:56.434Z,0.50
2023-04-01T17:21:55.985Z,0.52
2023-04-01T17:25:56.319Z,0.51
2023-04-01T17:29:56.407Z,0.52
2023-04-01T17:33:55.981Z,0.52
2023-04-01T17:37:56.360Z,0.52
2023-04-01T17:41:55.902Z,0.50
2023-04-01T17:45:56.346Z,0.51
2023-04-01T17:49:56.340Z,0.51
2023-04-01T17:53:55.830Z,0.52
2023-04-01T17:57:55.885Z,0.51
2023-04-01T18:01:55.793Z,0.51
2023-04-01T18:05:55.930Z,0.50
2023-04-01T18:09:55.936Z,0.50
2023-04-01T18:13:55.888Z,0.51
2023-04-01T18:17:55.886Z,0.51
2023-04-01T18:21:55.839Z,0.51
2023-04-01T18:25:55.834Z,0.51
2023-04-01T18:29:55.905Z,0.50
2023-04-01T18:33:55.693Z,0.51
2023-04-01T18:37:55.884Z,0.51
2023-04-01T18:41:55.646Z,0.50
2023-04-01T18:45:55.913Z,0.52
2023-04-01T18:49:55.551Z,0.50
2023-04-01T18:53:55.522Z,0.51
2023-04-01T18:57:55.873Z,0.51
2023-04-01T19:01:55.734Z,0.51
2023-04-01T19:05:56.382Z,0.51
2023-04-01T19:09:56.158Z,0.52
2023-04-01T19:13:56.415Z,0.52
2023-04-01T19:17:56.197Z,0.52
2023-04-01T19:21:56.388Z,0.52
2023-04-01T19:25:56.043Z,0.51
2023-04-01T19:29:55.965Z,0.52
2023-04-01T19:33:56.370Z,0.51
2023-04-01T19:37:56.377Z,0.51
2023-04-01T19:41:55.914Z,0.52
2023-04-01T19:45:55.908Z,0.51
2023-04-01T19:49:55.944Z,0.50
2023-04-01T19:53:56.380Z,0.50
2023-04-01T19:57:56.376Z,0.52
2023-04-01T20:01:55.883Z,0.51
2023-04-01T20:05:55.854Z,0.51
2023-04-01T20:09:55.787Z,0.52
2023-04-01T20:13:55.863Z,0.53
2023-04-01T20:17:56.015Z,0.52
2023-04-01T20:21:55.908Z,0.52
2023-04-01T20:25:55.628Z,0.52
2023-04-01T20:29:55.712Z,0.52
2023-04-01T20:33:55.958Z,0.51
2023-04-01T20:37:55.942Z,0.52
2023-04-01T20:41:56.398Z,0.52
2023-04-01T20:45:56.251Z,0.52
2023-04-01T20:49:56.466Z,0.51
2023-04-01T20:53:56.281Z,0.51
2023-04-01T20:57:56.422Z,0.50
2023-04-01T21:01:56.408Z,0.51
2023-04-01T21:05:56.381Z,0.52
2023-04-01T21:09:56.449Z,0.51
2023-04-01T21:13:56.422Z,0.51
2023-04-01T21:17:56.435Z,0.51
2023-04-01T21:21:56.423Z,0.51
2023-04-01T21:25:56.358Z,0.51
2023-04-01T21:29:56.389Z,0.51
2023-04-01T21:33:56.365Z,0.53
2023-04-01T21:37:56.414Z,0.52
2023-04-01T21:41:56.462Z,0.51
2023-04-01T21:45:56.468Z,0.51
2023-04-01T21:49:56.922Z,0.51
2023-04-01T21:53:56.440Z,0.51
2023-04-01T21:57:56.429Z,0.51
2023-04-01T22:01:56.414Z,0.51
2023-04-01T22:05:56.437Z,0.52
2023-04-01T22:09:56.360Z,0.51
2023-04-01T22:13:56.445Z,0.52
2023-04-01T22:17:56.393Z,0.52
2023-04-01T22:21:56.322Z,0.51
2023-04-01T22:25:58.809Z,0.51
2023-04-01T22:29:56.260Z,0.52
2023-04-01T22:33:56.219Z,0.52
2023-04-01T22:37:56.440Z,0.51
2023-04-01T22:41:56.168Z,0.52
2023-04-01T22:45:56.511Z,0.52
2023-04-01T22:49:56.446Z,0.50
2023-04-01T22:53:56.053Z,0.51
2023-04-01T22:57:56.481Z,0.52
2023-04-01T23:01:56.003Z,0.51
2023-04-01T23:05:55.982Z,0.51
2023-04-01T23:09:55.939Z,0.52
2023-04-01T23:13:55.855Z,0.50
2023-04-01T23:17:57.534Z,0.50
2023-04-01T23:21:55.790Z,0.50
2023-04-01T23:25:55.813Z,0.51
2023-04-01T23:29:55.970Z,0.51
2023-04-01T23:33:57.460Z,0.52
2023-04-01T23:37:55.677Z,0.52
2023-04-01T23:41:55.977Z,0.51
2023-04-01T23:45:56.141Z,0.50
2023-04-01T23:49:55.545Z,0.52
2023-04-01T23:53:55.975Z,0.52
2023-04-01T23:57:55.451Z,0.52
